Time;durP1;ratioP1;P1;durP2;ratioP2;P2;SDS_P1;SDS_P2;PMS_P1;PMS_P2;Temp;Humidity;BMP_temperature;BMP_pressure;BME280_temperature;BME280_humidity;BME280_pressure;Samples;Min_cycle;Max_cycle;Signal;HPM_P1;HPM_P2
2022/04/23 00:01:30;;;;;;;13.40;10.27;;;9.90;99.90;;;;;;5034442;28;20198;-48
2022/04/23 00:03:56;;;;;;;14.90;10.87;;;9.90;99.90;;;;;;5034186;28;20660;-47
2022/04/23 00:06:21;;;;;;;13.57;10.17;;;9.80;99.90;;;;;;5033965;28;20224;-45
2022/04/23 00:08:47;;;;;;;15.67;11.50;;;9.80;99.90;;;;;;5033912;28;20654;-47
2022/04/23 00:11:13;;;;;;;12.77;10.03;;;9.80;99.90;;;;;;5034464;28;20212;-47
2022/04/23 00:13:38;;;;;;;16.67;11.20;;;9.80;99.90;;;;;;5033218;28;20703;-46
2022/04/23 00:16:07;;;;;;;13.10;10.77;;;9.80;99.90;;;;;;5033713;28;20190;-47
2022/04/23 00:18:32;;;;;;;15.80;11.40;;;9.70;99.90;;;;;;5034033;28;20528;-47
2022/04/23 00:20:58;;;;;;;17.67;10.53;;;9.70;99.90;;;;;;5034701;28;20327;-46
2022/04/23 00:23:25;;;;;;;14.87;11.13;;;9.60;99.90;;;;;;5033189;28;20188;-47
2022/04/23 00:25:52;;;;;;;16.10;11.10;;;9.60;99.90;;;;;;5033994;28;20181;-46
2022/04/23 00:28:18;;;;;;;14.43;10.53;;;9.60;99.90;;;;;;5033826;28;20189;-47
2022/04/23 00:30:47;;;;;;;20.67;11.70;;;9.60;99.90;;;;;;5033814;28;20273;-46
2022/04/23 00:33:12;;;;;;;13.63;10.83;;;9.50;99.90;;;;;;5033616;28;20315;-46
2022/04/23 00:35:38;;;;;;;12.03;10.37;;;9.50;99.90;;;;;;5033536;28;20267;-45
2022/04/23 00:38:05;;;;;;;15.30;10.97;;;9.40;99.90;;;;;;5033716;28;20201;-46
2022/04/23 00:40:31;;;;;;;14.17;10.50;;;9.40;99.90;;;;;;5045419;28;20668;-46
2022/04/23 00:42:58;;;;;;;15.73;10.27;;;9.30;99.90;;;;;;5043481;28;20243;-48
2022/04/23 00:45:26;;;;;;;13.07;10.03;;;9.30;99.90;;;;;;5033738;28;20185;-47
2022/04/23 00:47:53;;;;;;;13.50;10.83;;;9.30;99.90;;;;;;5033373;28;20200;-47
2022/04/23 00:50:21;;;;;;;13.80;10.50;;;9.20;99.90;;;;;;5033463;28;20247;-46
2022/04/23 00:53:00;;;;;;;14.23;10.90;;;9.10;99.90;;;;;;5033398;28;20695;-46
2022/04/23 00:55:27;;;;;;;14.43;10.27;;;9.10;99.90;;;;;;5033495;28;20659;-48
2022/04/23 00:57:53;;;;;;;12.20;10.33;;;9.00;99.90;;;;;;5033300;28;20209;-46
2022/04/23 01:00:19;;;;;;;13.13;10.63;;;8.90;99.90;;;;;;5033439;28;20197;-45
2022/04/23 01:02:45;;;;;;;19.13;11.27;;;8.80;99.90;;;;;;5033227;28;20181;-47
2022/04/23 01:05:10;;;;;;;14.13;10.93;;;8.80;99.90;;;;;;5033494;28;20184;-47
2022/04/23 01:07:45;;;;;;;14.40;10.97;;;8.80;99.90;;;;;;5033123;28;20189;-47
2022/04/23 01:10:12;;;;;;;13.67;11.17;;;8.80;99.90;;;;;;5033278;28;20176;-49
2022/04/23 01:12:38;;;;;;;13.43;10.47;;;8.80;99.90;;;;;;5033619;28;20185;-48
2022/04/23 01:15:09;;;;;;;15.93;9.93;;;8.80;99.90;;;;;;5033135;28;20184;-46
2022/04/23 01:17:36;;;;;;;17.40;11.40;;;8.80;99.90;;;;;;5032957;28;20655;-48
2022/04/23 01:20:14;;;;;;;11.40;9.83;;;8.70;99.90;;;;;;5033429;28;20284;-47
2022/04/23 01:22:41;;;;;;;14.07;10.90;;;8.70;99.90;;;;;;5031773;28;20174;-48
2022/04/23 01:25:10;;;;;;;13.10;10.23;;;8.60;99.90;;;;;;5034798;28;20189;-46
2022/04/23 01:27:37;;;;;;;13.17;10.63;;;8.60;99.90;;;;;;5037168;28;20208;-48
2022/04/23 01:30:04;;;;;;;17.03;10.80;;;8.50;99.90;;;;;;5036877;28;20615;-48
2022/04/23 01:32:30;;;;;;;13.57;10.70;;;8.50;99.90;;;;;;5037084;28;20260;-46
2022/04/23 01:34:56;;;;;;;13.73;10.40;;;8.40;99.90;;;;;;5036760;28;20268;-49
2022/04/23 01:37:22;;;;;;;14.70;11.03;;;8.30;99.90;;;;;;5036584;28;20204;-46
2022/04/23 01:39:48;;;;;;;12.87;10.03;;;8.30;99.90;;;;;;5036478;28;20215;-46
2022/04/23 01:42:17;;;;;;;21.17;11.63;;;8.20;99.90;;;;;;5036840;28;20636;-48
2022/04/23 01:44:46;;;;;;;14.67;10.80;;;8.20;99.90;;;;;;5036919;28;20208;-46
2022/04/23 01:47:12;;;;;;;15.90;11.63;;;8.10;99.90;;;;;;5036728;28;20205;-46
2022/04/23 01:49:38;;;;;;;13.97;11.47;;;8.10;99.90;;;;;;5036440;28;20193;-47
2022/04/23 01:52:04;;;;;;;16.93;12.13;;;8.10;99.90;;;;;;5036501;28;20181;-47
2022/04/23 01:54:29;;;;;;;14.87;12.17;;;8.20;99.90;;;;;;5036326;28;20535;-48
2022/04/23 01:56:59;;;;;;;16.70;12.73;;;8.20;99.90;;;;;;5036271;28;20207;-48
2022/04/23 01:59:25;;;;;;;15.40;12.07;;;8.20;99.90;;;;;;5036474;28;20208;-47
2022/04/23 02:01:51;;;;;;;18.77;13.20;;;8.20;99.90;;;;;;5036562;28;20181;-46
2022/04/23 02:04:17;;;;;;;17.53;13.70;;;8.20;99.90;;;;;;5036291;28;20236;-48
2022/04/23 02:06:43;;;;;;;17.83;14.17;;;8.30;99.90;;;;;;5036428;28;20664;-47
2022/04/23 02:09:09;;;;;;;23.23;14.57;;;8.30;99.90;;;;;;5034843;28;20193;-46
2022/04/23 02:11:34;;;;;;;19.27;14.23;;;8.40;99.90;;;;;;5036328;28;20584;-48
2022/04/23 02:14:02;;;;;;;24.47;15.47;;;8.40;99.90;;;;;;5036316;28;20180;-49
2022/04/23 02:16:28;;;;;;;18.97;13.73;;;8.50;99.90;;;;;;5035955;28;20200;-47
2022/04/23 02:18:54;;;;;;;20.20;14.57;;;8.50;99.90;;;;;;5035835;28;20291;-47
2022/04/23 02:21:19;;;;;;;20.47;15.77;;;8.50;99.90;;;;;;5036558;28;20185;-47
2022/04/23 02:23:45;;;;;;;20.17;15.20;;;8.50;99.90;;;;;;5035842;28;20185;-45
2022/04/23 02:26:10;;;;;;;21.97;13.60;;;8.50;99.90;;;;;;5036039;28;20240;-48
2022/04/23 02:28:39;;;;;;;19.43;13.90;;;8.50;99.90;;;;;;5034545;28;20247;-47
2022/04/23 02:31:07;;;;;;;22.10;14.50;;;8.50;99.90;;;;;;5036282;28;20212;-48
2022/04/23 02:33:32;;;;;;;19.77;14.83;;;8.40;99.90;;;;;;5035673;28;20169;-47
2022/04/23 02:35:58;;;;;;;17.17;14.03;;;8.40;99.90;;;;;;5034482;28;20185;-47
2022/04/23 02:38:24;;;;;;;18.27;14.37;;;8.40;99.90;;;;;;5035569;28;20181;-48
2022/04/23 02:40:49;;;;;;;19.80;15.87;;;8.30;99.90;;;;;;5035298;28;20227;-46
2022/04/23 02:43:15;;;;;;;26.40;15.00;;;8.30;99.90;;;;;;5035423;28;20176;-46
2022/04/23 02:45:41;;;;;;;21.03;15.27;;;8.30;99.90;;;;;;5035637;28;20177;-47
2022/04/23 02:48:09;;;;;;;21.03;14.80;;;8.30;99.90;;;;;;5035533;28;20542;-46
2022/04/23 02:50:37;;;;;;;22.73;15.00;;;8.30;99.90;;;;;;5035670;28;20181;-48
2022/04/23 02:53:07;;;;;;;22.40;15.83;;;8.30;99.90;;;;;;5035264;28;20660;-47
2022/04/23 02:55:34;;;;;;;20.70;14.13;;;8.30;99.90;;;;;;5035303;28;20177;-47
2022/04/23 02:58:05;;;;;;;20.20;14.57;;;8.20;99.90;;;;;;5035166;28;20266;-45
2022/04/23 03:00:31;;;;;;;20.00;14.13;;;8.20;99.90;;;;;;5035465;28;20204;-47
2022/04/23 03:02:57;;;;;;;19.07;14.77;;;8.20;99.90;;;;;;5035351;28;20180;-47
2022/04/23 03:05:23;;;;;;;18.67;13.80;;;8.20;99.90;;;;;;5035881;28;20174;-47
2022/04/23 03:07:48;;;;;;;20.90;14.77;;;8.10;99.90;;;;;;5034963;28;20200;-46
2022/04/23 03:10:18;;;;;;;20.60;14.50;;;8.10;99.90;;;;;;5035407;28;20234;-49
2022/04/23 03:12:43;;;;;;;17.67;14.50;;;8.10;99.90;;;;;;5034965;28;20181;-46
2022/04/23 03:15:13;;;;;;;21.63;15.77;;;8.10;99.90;;;;;;5034953;28;20191;-44
2022/04/23 03:17:39;;;;;;;17.70;14.23;;;8.10;99.90;;;;;;5034825;28;20196;-47
2022/04/23 03:20:07;;;;;;;22.77;15.67;;;8.10;99.90;;;;;;5034780;28;20197;-46
2022/04/23 03:22:33;;;;;;;22.63;16.13;;;8.10;99.90;;;;;;5034700;28;20737;-46
2022/04/23 03:24:59;;;;;;;21.50;15.60;;;8.10;99.90;;;;;;5034958;28;20177;-46
2022/04/23 03:27:25;;;;;;;23.07;16.83;;;8.00;99.90;;;;;;5035517;28;20584;-46
2022/04/23 03:29:50;;;;;;;21.27;15.40;;;8.10;99.90;;;;;;5033435;28;20548;-48
2022/04/23 03:32:17;;;;;;;21.23;14.50;;;8.10;99.90;;;;;;5034603;28;20192;-46
2022/04/23 03:34:42;;;;;;;17.87;14.87;;;8.10;99.90;;;;;;5034449;28;20239;-46
2022/04/23 03:37:09;;;;;;;20.43;15.97;;;8.10;99.90;;;;;;5034765;28;20204;-47
2022/04/23 03:39:36;;;;;;;20.87;17.13;;;8.20;99.90;;;;;;5034281;28;20226;-47
2022/04/23 03:42:02;;;;;;;21.23;16.57;;;8.10;99.90;;;;;;5034700;28;20177;-47
2022/04/23 03:44:31;;;;;;;22.97;15.70;;;8.10;99.90;;;;;;5034418;28;20176;-45
2022/04/23 03:46:58;;;;;;;22.23;16.20;;;8.10;99.90;;;;;;5039515;28;20195;-46
2022/04/23 03:49:24;;;;;;;23.43;17.00;;;8.20;99.90;;;;;;5050781;28;20195;-46
2022/04/23 03:51:50;;;;;;;23.57;15.90;;;8.20;99.90;;;;;;5042488;28;20644;-47
2022/04/23 03:54:17;;;;;;;23.17;16.67;;;8.10;99.90;;;;;;5034652;28;20189;-46
2022/04/23 03:56:43;;;;;;;22.37;16.13;;;8.10;99.90;;;;;;5034270;28;20677;-45
2022/04/23 03:59:08;;;;;;;22.23;16.67;;;8.10;99.90;;;;;;5034682;28;20212;-45
2022/04/23 04:01:34;;;;;;;24.47;17.70;;;8.10;99.90;;;;;;5034952;28;20231;-47
2022/04/23 04:04:01;;;;;;;23.23;17.27;;;8.10;99.90;;;;;;5035064;28;20173;-48
2022/04/23 04:06:27;;;;;;;21.57;16.23;;;8.10;99.90;;;;;;5033980;28;20568;-45
2022/04/23 04:08:53;;;;;;;22.37;15.47;;;8.10;99.90;;;;;;5033122;28;20641;-45
2022/04/23 04:11:19;;;;;;;20.47;16.87;;;8.10;99.90;;;;;;5034165;28;20184;-45
2022/04/23 04:13:45;;;;;;;21.87;16.70;;;8.00;99.90;;;;;;5034124;28;20267;-45
2022/04/23 04:16:12;;;;;;;23.30;16.07;;;8.00;99.90;;;;;;5033709;28;20233;-45
2022/04/23 04:18:37;;;;;;;20.47;15.30;;;8.00;99.90;;;;;;5033654;28;20176;-45
2022/04/23 04:21:03;;;;;;;26.13;16.50;;;8.00;99.90;;;;;;5033684;28;20175;-44
2022/04/23 04:23:29;;;;;;;22.17;15.53;;;8.00;99.90;;;;;;5033165;28;20255;-45
2022/04/23 04:25:54;;;;;;;23.17;16.50;;;8.00;99.90;;;;;;5033957;28;20177;-44
2022/04/23 04:28:20;;;;;;;21.73;16.37;;;8.00;99.90;;;;;;5034421;28;20645;-47
2022/04/23 04:33:31;;;;;;;20.43;15.33;;;8.00;99.90;;;;;;5034120;28;20318;-44
2022/04/23 04:35:56;;;;;;;23.63;17.03;;;8.00;99.90;;;;;;5033527;28;20692;-46
2022/04/23 04:38:22;;;;;;;24.43;16.37;;;8.00;99.90;;;;;;5033491;28;20183;-45
2022/04/23 04:40:48;;;;;;;21.93;16.70;;;8.00;99.90;;;;;;5033342;28;20223;-44
2022/04/23 04:43:13;;;;;;;22.40;15.13;;;8.00;99.90;;;;;;5033424;28;20535;-44
2022/04/23 04:45:39;;;;;;;23.83;16.10;;;8.00;99.90;;;;;;5033664;28;20185;-44
2022/04/23 04:48:05;;;;;;;20.80;15.77;;;8.00;99.90;;;;;;5033252;28;20197;-46
2022/04/23 04:50:31;;;;;;;20.47;15.60;;;8.00;99.90;;;;;;5033307;28;20587;-45
2022/04/23 04:52:58;;;;;;;20.83;16.40;;;8.00;99.90;;;;;;5032080;28;20177;-43
2022/04/23 04:55:23;;;;;;;19.00;15.67;;;8.10;99.90;;;;;;5033289;28;20263;-44
2022/04/23 04:57:49;;;;;;;21.93;17.30;;;8.10;99.90;;;;;;5033465;28;20300;-45
2022/04/23 05:00:16;;;;;;;19.00;15.50;;;8.10;99.90;;;;;;5036739;28;20207;-44
2022/04/23 05:02:42;;;;;;;27.00;16.43;;;8.10;99.90;;;;;;5037683;28;20232;-45
2022/04/23 05:05:08;;;;;;;24.30;17.67;;;8.20;99.90;;;;;;5037673;28;20192;-44
2022/04/23 05:07:34;;;;;;;19.17;15.67;;;8.20;99.90;;;;;;5037934;28;20247;-47
2022/04/23 05:10:01;;;;;;;19.23;15.37;;;8.20;99.90;;;;;;5037301;28;20183;-46
2022/04/23 05:12:26;;;;;;;22.20;14.90;;;8.20;99.90;;;;;;5036134;28;20557;-44
2022/04/23 05:14:52;;;;;;;25.87;16.97;;;8.30;99.90;;;;;;5037766;28;20180;-43
2022/04/23 05:17:18;;;;;;;24.30;17.67;;;8.30;99.90;;;;;;5037474;28;20552;-43
2022/04/23 05:19:44;;;;;;;21.50;15.53;;;8.30;99.90;;;;;;5037047;28;20254;-46
2022/04/23 05:22:09;;;;;;;20.63;15.13;;;8.30;99.90;;;;;;5035880;28;20676;-45
2022/04/23 05:24:35;;;;;;;22.87;15.80;;;8.40;99.90;;;;;;5037052;28;20190;-43
2022/04/23 05:27:01;;;;;;;22.07;15.20;;;8.40;99.90;;;;;;5036881;28;20211;-45
2022/04/23 05:29:27;;;;;;;22.23;15.80;;;8.50;99.90;;;;;;5036935;28;20272;-46
2022/04/23 05:31:52;;;;;;;20.93;15.67;;;8.50;99.90;;;;;;5037181;28;20278;-45
2022/04/23 05:34:18;;;;;;;27.07;17.40;;;8.60;99.90;;;;;;5036895;28;20180;-45
2022/04/23 05:36:44;;;;;;;21.00;14.53;;;8.60;99.90;;;;;;5037241;28;20271;-45
2022/04/23 05:39:10;;;;;;;22.80;17.57;;;8.80;99.90;;;;;;5036729;28;20212;-45
2022/04/23 05:41:36;;;;;;;27.23;16.10;;;8.80;99.90;;;;;;5035476;28;20263;-45
2022/04/23 05:44:02;;;;;;;23.13;17.07;;;8.90;99.90;;;;;;5035422;28;20226;-38
2022/04/23 05:46:28;;;;;;;20.77;15.97;;;9.00;99.90;;;;;;5036638;28;20403;-39
2022/04/23 05:48:55;;;;;;;22.00;16.20;;;9.00;99.90;;;;;;5037180;28;20180;-42
2022/04/23 05:51:20;;;;;;;23.83;15.30;;;9.10;99.90;;;;;;5036510;28;20220;-42
2022/04/23 05:53:46;;;;;;;20.23;15.03;;;9.20;99.90;;;;;;5036429;28;20668;-42
2022/04/23 05:56:11;;;;;;;24.23;16.60;;;9.20;99.90;;;;;;5036761;28;20196;-41
2022/04/23 05:58:37;;;;;;;21.47;16.07;;;9.30;99.90;;;;;;5036400;28;20210;-42
2022/04/23 06:01:03;;;;;;;22.83;17.50;;;9.30;99.90;;;;;;5036702;28;20184;-40
2022/04/23 06:03:30;;;;;;;24.23;16.80;;;9.40;99.90;;;;;;5036318;28;20173;-44
2022/04/23 06:05:56;;;;;;;23.83;16.90;;;9.40;99.90;;;;;;5036285;28;20293;-42
2022/04/23 06:08:21;;;;;;;24.03;16.90;;;9.50;99.90;;;;;;5036232;28;20243;-42
2022/04/23 06:10:47;;;;;;;21.80;16.43;;;9.50;99.90;;;;;;5036107;28;20184;-42
2022/04/23 06:13:13;;;;;;;23.73;16.50;;;9.60;99.90;;;;;;5036108;28;20212;-41
2022/04/23 06:15:39;;;;;;;18.67;15.57;;;9.60;99.90;;;;;;5035976;28;20219;-43
2022/04/23 06:18:04;;;;;;;24.57;16.43;;;9.70;99.90;;;;;;5035997;28;20211;-41
2022/04/23 06:20:30;;;;;;;23.20;15.67;;;9.80;99.90;;;;;;5035874;28;20208;-41
2022/04/23 06:22:55;;;;;;;25.27;16.60;;;9.90;99.90;;;;;;5035944;28;20181;-42
2022/04/23 06:25:21;;;;;;;22.17;14.30;;;10.00;99.90;;;;;;5035893;28;20600;-41
2022/04/23 06:27:47;;;;;;;23.87;15.60;;;10.20;99.90;;;;;;5035825;28;20201;-43
2022/04/23 06:30:13;;;;;;;23.70;14.63;;;10.30;99.90;;;;;;5036090;28;20189;-41
2022/04/23 06:32:39;;;;;;;27.63;16.23;;;10.40;99.90;;;;;;5036025;28;20220;-42
2022/04/23 06:35:05;;;;;;;19.53;15.67;;;10.60;99.90;;;;;;5035800;28;20209;-43
2022/04/23 06:37:36;;;;;;;23.47;15.20;;;10.70;99.90;;;;;;5035551;28;20699;-42
2022/04/23 06:40:02;;;;;;;23.77;15.23;;;10.90;99.90;;;;;;5035700;28;20303;-43
2022/04/23 06:42:27;;;;;;;28.20;13.70;;;11.10;99.90;;;;;;5035419;28;20252;-42
2022/04/23 06:44:53;;;;;;;20.43;14.33;;;11.40;99.90;;;;;;5035833;28;20177;-42
2022/04/23 06:47:18;;;;;;;25.53;13.40;;;11.50;99.90;;;;;;5035661;28;20199;-40
2022/04/23 06:49:44;;;;;;;18.60;13.57;;;11.80;99.90;;;;;;5034262;28;20186;-42
2022/04/23 06:52:09;;;;;;;14.93;12.50;;;12.00;99.90;;;;;;5035986;28;20190;-41
2022/04/23 06:54:35;;;;;;;20.70;12.80;;;12.10;99.90;;;;;;5038286;28;20166;-42
2022/04/23 06:57:00;;;;;;;14.33;12.13;;;12.20;99.90;;;;;;5053374;28;20197;-43
2022/04/23 06:59:26;;;;;;;16.53;11.17;;;12.30;99.90;;;;;;5050192;28;20288;-42
2022/04/23 07:01:52;;;;;;;13.70;10.93;;;12.40;99.90;;;;;;5036031;28;20177;-41
2022/04/23 07:04:17;;;;;;;16.30;12.93;;;12.60;99.90;;;;;;5035760;28;20194;-39
2022/04/23 07:06:43;;;;;;;17.17;12.37;;;12.70;99.90;;;;;;5035305;28;20201;-41
2022/04/23 07:09:08;;;;;;;16.57;13.03;;;12.90;99.90;;;;;;5035119;28;20627;-41
2022/04/23 07:11:34;;;;;;;13.70;9.83;;;12.90;99.90;;;;;;5035075;28;20541;-41
2022/04/23 07:14:00;;;;;;;14.17;11.70;;;13.10;99.90;;;;;;5035184;28;20263;-40
2022/04/23 07:16:25;;;;;;;15.50;12.33;;;13.20;99.90;;;;;;5035551;28;20201;-41
2022/04/23 07:18:53;;;;;;;13.30;10.27;;;13.30;99.90;;;;;;5035267;28;20718;-42
2022/04/23 07:21:22;;;;;;;16.57;11.73;;;13.30;99.90;;;;;;5034531;28;20191;-42
2022/04/23 07:24:03;;;;;;;13.40;9.17;;;13.40;99.90;;;;;;5035062;28;20192;-42
2022/04/23 07:26:29;;;;;;;14.43;10.60;;;13.60;99.90;;;;;;5034957;28;20207;-43
2022/04/23 07:28:55;;;;;;;13.10;10.43;;;13.70;99.90;;;;;;5033533;28;20299;-41
2022/04/23 07:31:20;;;;;;;12.67;10.33;;;13.70;99.90;;;;;;5034854;28;20219;-41
2022/04/23 07:39:14;;;;;;;14.00;11.47;;;13.90;99.90;;;;;;5034651;28;20776;-42
2022/04/23 07:41:40;;;;;;;12.90;10.90;;;13.90;99.90;;;;;;5034779;28;20251;-41
2022/04/23 07:44:05;;;;;;;11.63;10.07;;;14.00;99.90;;;;;;5034482;28;20185;-42
2022/04/23 07:46:31;;;;;;;12.00;10.50;;;14.10;99.90;;;;;;5034568;28;20251;-41
2022/04/23 07:48:58;;;;;;;13.80;11.10;;;14.20;99.90;;;;;;5034767;28;20200;-41
2022/04/23 07:51:26;;;;;;;13.37;10.87;;;14.20;99.90;;;;;;5034269;28;20658;-43
2022/04/23 07:53:53;;;;;;;15.10;10.30;;;14.30;99.90;;;;;;5034700;28;20204;-43
2022/04/23 07:56:18;;;;;;;11.27;9.47;;;14.40;99.90;;;;;;5034418;28;20286;-42
2022/04/23 07:58:44;;;;;;;12.43;9.03;;;14.60;99.90;;;;;;5033986;28;20188;-42
2022/04/23 08:01:09;;;;;;;12.47;9.03;;;14.70;99.90;;;;;;5034372;28;20185;-43
2022/04/23 08:03:35;;;;;;;10.57;8.70;;;14.80;99.90;;;;;;5034200;28;20204;-43
2022/04/23 08:06:00;;;;;;;10.57;8.63;;;14.90;99.90;;;;;;5034095;28;20173;-41
2022/04/23 08:08:26;;;;;;;12.00;8.07;;;15.00;99.90;;;;;;5033887;28;20656;-42
2022/04/23 08:10:52;;;;;;;10.23;8.90;;;15.10;99.90;;;;;;5033830;28;20230;-43
2022/04/23 08:13:17;;;;;;;10.47;9.10;;;15.20;99.90;;;;;;5033818;28;20259;-42
2022/04/23 08:15:43;;;;;;;11.83;9.07;;;15.20;99.90;;;;;;5033900;28;20247;-43
2022/04/23 08:18:09;;;;;;;11.60;9.13;;;15.30;99.90;;;;;;5033989;28;20580;-44
2022/04/23 08:20:34;;;;;;;11.37;9.23;;;15.40;99.90;;;;;;5033983;28;20209;-43
2022/04/23 08:23:00;;;;;;;10.47;9.37;;;15.50;99.90;;;;;;5033880;28;20630;-43
2022/04/23 08:25:25;;;;;;;11.37;9.00;;;15.60;99.90;;;;;;5033773;28;20245;-43
2022/04/23 08:27:53;;;;;;;10.93;9.73;;;15.70;99.90;;;;;;5033526;28;20304;-43
2022/04/23 08:30:36;;;;;;;10.57;8.80;;;15.80;99.90;;;;;;5033788;28;20242;-42
2022/04/23 08:33:06;;;;;;;10.83;9.13;;;15.80;99.90;;;;;;5031723;28;20256;-44
2022/04/23 08:35:32;;;;;;;9.73;7.07;;;15.90;99.90;;;;;;5033747;28;20185;-42
2022/04/23 08:37:59;;;;;;;11.43;8.03;;;16.00;99.90;;;;;;5033710;28;20208;-41
2022/04/23 08:40:29;;;;;;;10.57;7.93;;;16.10;99.90;;;;;;5033428;28;20567;-42
2022/04/23 08:42:56;;;;;;;9.07;8.17;;;16.20;99.90;;;;;;5033754;28;20569;-44
2022/04/23 08:45:22;;;;;;;10.53;8.93;;;16.20;99.90;;;;;;5033520;28;20185;-41
2022/04/23 08:47:49;;;;;;;7.73;6.93;;;16.30;99.90;;;;;;5033676;28;20614;-42
2022/04/23 08:50:19;;;;;;;11.20;8.23;;;16.50;99.90;;;;;;5033489;28;20181;-42
2022/04/23 08:52:51;;;;;;;9.50;6.90;;;16.50;99.90;;;;;;5034025;28;20181;-42
2022/04/23 08:55:18;;;;;;;8.13;7.27;;;16.60;99.90;;;;;;5032563;28;20287;-41
2022/04/23 08:57:44;;;;;;;10.53;7.90;;;16.80;99.90;;;;;;5033655;28;20201;-43
2022/04/23 09:00:14;;;;;;;9.00;7.10;;;16.80;99.90;;;;;;5033290;28;20208;-42
2022/04/23 09:02:41;;;;;;;8.80;7.53;;;16.80;99.90;;;;;;5033265;28;20184;-43
2022/04/23 09:05:07;;;;;;;10.77;8.10;;;16.80;99.90;;;;;;5033557;28;20546;-42
2022/04/23 09:07:33;;;;;;;14.33;8.57;;;16.90;99.90;;;;;;5033995;28;20211;-43
2022/04/23 09:09:59;;;;;;;8.70;7.80;;;17.00;99.90;;;;;;5033163;28;20264;-43
2022/04/23 09:12:26;;;;;;;9.47;8.47;;;17.00;99.90;;;;;;5033425;28;20200;-42
2022/04/23 09:14:54;;;;;;;11.03;8.07;;;17.10;99.90;;;;;;5033219;28;20192;-42
2022/04/23 09:25:45;;;;;;;9.93;7.40;;;17.50;99.90;;;;;;5033111;28;20215;-42
2022/04/23 09:28:23;;;;;;;10.07;7.40;;;17.50;99.90;;;;;;5033135;28;20204;-43
2022/04/23 09:30:51;;;;;;;12.03;7.43;;;17.60;99.90;;;;;;5032958;28;20219;-45
2022/04/23 09:33:18;;;;;;;10.30;7.77;;;17.70;99.90;;;;;;5033253;28;20185;-44
2022/04/23 09:35:58;;;;;;;8.50;7.60;;;17.80;99.90;;;;;;5033004;28;20189;-44
2022/04/23 09:38:25;;;;;;;9.70;7.43;;;17.90;99.90;;;;;;5033022;28;20664;-45
2022/04/23 09:41:18;;;;;;;10.20;7.20;;;18.00;99.90;;;;;;5033089;28;20244;-43
2022/04/23 09:44:07;;;;;;;9.90;7.50;;;18.00;99.90;;;;;;5031796;28;20173;-43
2022/04/23 09:46:46;;;;;;;8.20;7.10;;;18.20;99.90;;;;;;5021695;28;20209;-43
2022/04/23 09:49:18;;;;;;;10.10;7.50;;;18.30;99.90;;;;;;5036756;28;20184;-44
2022/04/23 09:52:08;;;;;;;8.40;7.10;;;18.30;99.90;;;;;;5037034;28;20617;-43
2022/04/23 09:54:35;;;;;;;7.87;6.97;;;18.50;99.90;;;;;;5036399;28;20645;-42
2022/04/23 09:57:01;;;;;;;8.23;7.40;;;18.60;99.90;;;;;;5036373;28;20236;-44
2022/04/23 09:59:27;;;;;;;9.77;7.10;;;18.60;99.90;;;;;;5036681;28;20711;-45
2022/04/23 10:01:54;;;;;;;8.20;7.40;;;18.60;99.90;;;;;;5036338;28;20257;-44
2022/04/23 10:04:29;;;;;;;11.27;7.33;;;18.60;99.90;;;;;;5036312;28;20181;-44
2022/04/23 10:06:56;;;;;;;8.13;7.33;;;18.60;99.90;;;;;;5036112;28;20668;-43
2022/04/23 10:09:26;;;;;;;11.40;8.07;;;18.70;99.90;;;;;;5036581;28;20192;-44
2022/04/23 10:12:02;;;;;;;10.43;7.40;;;18.80;99.90;;;;;;5036405;28;20260;-43
2022/04/23 10:14:34;;;;;;;8.00;7.20;;;18.90;99.90;;;;;;5036453;28;20176;-44
2022/04/23 10:17:02;;;;;;;8.00;7.03;;;19.00;99.90;;;;;;5036135;28;20197;-44
2022/04/23 10:19:29;;;;;;;8.23;7.43;;;19.00;99.90;;;;;;5036264;28;20251;-44
2022/04/23 10:22:11;;;;;;;9.33;7.70;;;19.00;99.90;;;;;;5036279;28;20531;-45
2022/04/23 10:24:48;;;;;;;8.60;6.80;;;19.10;99.90;;;;;;5035919;28;20165;-44
2022/04/23 10:27:15;;;;;;;8.67;7.03;;;19.20;99.90;;;;;;5036088;28;20687;-44
2022/04/23 10:29:41;;;;;;;8.40;7.57;;;19.20;99.90;;;;;;5036046;28;20192;-45
2022/04/23 10:32:13;;;;;;;8.70;7.33;;;19.20;99.90;;;;;;5036121;28;20637;-44
2022/04/23 10:34:41;;;;;;;7.90;7.03;;;19.10;99.90;;;;;;5035800;28;20188;-44
2022/04/23 10:37:23;;;;;;;8.30;7.50;;;19.20;99.90;;;;;;5036047;28;20214;-44
2022/04/23 10:39:51;;;;;;;8.13;6.93;;;19.30;99.90;;;;;;5035738;28;20235;-45
2022/04/23 10:42:18;;;;;;;8.40;7.50;;;19.40;99.90;;;;;;5035639;28;20184;-45
2022/04/23 10:44:45;;;;;;;12.40;7.53;;;19.50;99.90;;;;;;5035962;28;20260;-44
2022/04/23 10:47:12;;;;;;;11.10;7.37;;;19.60;99.90;;;;;;5035544;28;20550;-44
2022/04/23 10:49:37;;;;;;;13.40;7.10;;;19.60;99.90;;;;;;5035631;28;20670;-43
2022/04/23 10:52:03;;;;;;;7.13;6.43;;;19.70;99.90;;;;;;5040251;28;20184;-44
2022/04/23 10:54:41;;;;;;;7.53;6.20;;;19.80;99.90;;;;;;5051163;28;20195;-44
2022/04/23 10:57:11;;;;;;;9.67;7.70;;;19.80;99.90;;;;;;5049275;28;20203;-45
2022/04/23 10:59:48;;;;;;;7.27;6.23;;;19.90;99.90;;;;;;5038076;28;20189;-44
2022/04/23 11:02:19;;;;;;;8.37;6.10;;;20.00;99.90;;;;;;5035751;28;20158;-44
2022/04/23 11:13:23;;;;;;;8.20;7.37;;;20.40;99.90;;;;;;5035499;28;20583;-44
2022/04/23 11:16:19;;;;;;;8.47;7.33;;;20.20;99.90;;;;;;5035241;28;20177;-44
2022/04/23 11:18:55;;;;;;;7.87;7.07;;;19.90;99.90;;;;;;5034154;28;20209;-43
2022/04/23 11:21:26;;;;;;;10.07;7.60;;;19.80;99.90;;;;;;5035174;28;20222;-44
2022/04/23 11:23:53;;;;;;;9.97;7.20;;;19.90;99.90;;;;;;5035075;28;20164;-43
2022/04/23 11:26:41;;;;;;;7.87;7.17;;;20.00;99.90;;;;;;5033579;28;20192;-44
2022/04/23 11:29:07;;;;;;;12.33;7.23;;;20.20;99.90;;;;;;5034689;28;20550;-43
2022/04/23 11:31:32;;;;;;;7.70;6.47;;;20.30;99.90;;;;;;5034723;28;20185;-44
2022/04/23 11:33:59;;;;;;;7.03;6.33;;;20.20;99.90;;;;;;5034569;28;20520;-44
2022/04/23 11:36:31;;;;;;;11.97;6.93;;;20.30;99.90;;;;;;5034808;28;20201;-44
2022/04/23 11:38:59;;;;;;;10.63;7.30;;;20.50;99.90;;;;;;5034932;28;20162;-44
2022/04/23 11:41:26;;;;;;;7.50;6.70;;;20.70;99.90;;;;;;5033195;28;20222;-44
2022/04/23 11:43:51;;;;;;;6.73;5.77;;;20.80;99.90;;;;;;5034430;28;20177;-45
2022/04/23 11:46:17;;;;;;;6.47;5.87;;;20.90;99.90;;;;;;5034601;28;20200;-44
2022/04/23 11:48:47;;;;;;;9.80;6.00;;;21.10;99.90;;;;;;5034377;28;20177;-43
2022/04/23 11:51:14;;;;;;;9.77;6.47;;;21.10;99.90;;;;;;5035345;28;20207;-43
2022/04/23 11:54:06;;;;;;;10.80;6.17;;;21.00;99.90;;;;;;5034262;28;20177;-44
2022/04/23 11:56:33;;;;;;;6.73;5.90;;;21.10;99.90;;;;;;5033154;28;20585;-45
2022/04/23 11:59:03;;;;;;;7.40;5.60;;;21.10;99.90;;;;;;5033088;28;20272;-44
2022/04/23 12:01:29;;;;;;;7.47;6.63;;;21.00;99.90;;;;;;5034350;28;20188;-43
2022/04/23 12:03:56;;;;;;;8.97;6.67;;;21.10;99.90;;;;;;5034269;28;20264;-44
2022/04/23 12:06:24;;;;;;;7.63;6.83;;;21.10;99.90;;;;;;5032688;28;20688;-43
2022/04/23 12:09:02;;;;;;;10.50;6.90;;;21.10;99.90;;;;;;5034124;28;20185;-43
2022/04/23 12:11:28;;;;;;;10.13;7.57;;;21.10;99.90;;;;;;5034308;28;20219;-45
2022/04/23 12:13:54;;;;;;;9.80;6.93;;;21.00;99.90;;;;;;5034245;28;20271;-44
2022/04/23 12:16:39;;;;;;;8.33;6.60;;;21.00;99.90;;;;;;5033745;28;20660;-46
2022/04/23 12:19:13;;;;;;;7.00;6.27;;;21.00;99.90;;;;;;5034037;28;20538;-43
2022/04/23 12:21:54;;;;;;;6.93;6.23;;;21.00;99.90;;;;;;5034136;28;20234;-44
2022/04/23 12:24:33;;;;;;;7.67;6.00;;;21.00;99.90;;;;;;5034051;28;20529;-44
2022/04/23 12:27:03;;;;;;;8.13;6.27;;;20.90;99.90;;;;;;5033879;28;20201;-44
2022/04/23 12:40:52;;;;;;;10.90;5.93;;;21.20;99.90;;;;;;5033405;28;20223;-44
2022/04/23 12:43:32;;;;;;;6.60;6.00;;;21.20;99.90;;;;;;5033748;28;20184;-44
2022/04/23 12:46:05;;;;;;;9.47;6.83;;;21.10;99.90;;;;;;5034187;28;20176;-43
2022/04/23 12:48:31;;;;;;;7.27;5.97;;;21.10;99.90;;;;;;5033859;28;20177;-44
2022/04/23 12:51:06;;;;;;;7.33;6.27;;;21.30;99.90;;;;;;5033879;28;20247;-45
2022/04/23 12:53:36;;;;;;;7.37;6.10;;;21.40;99.90;;;;;;5034166;28;20207;-44
2022/04/23 12:56:05;;;;;;;7.30;6.10;;;21.60;99.90;;;;;;5033922;28;20216;-43
2022/04/23 12:58:31;;;;;;;9.70;6.03;;;21.70;99.90;;;;;;5033482;28;20331;-44
2022/04/23 13:00:56;;;;;;;7.70;6.87;;;21.90;99.90;;;;;;5033329;28;20284;-45
2022/04/23 13:03:41;;;;;;;7.30;6.40;;;21.90;99.90;;;;;;5033308;28;20181;-45
2022/04/23 13:08:54;;;;;;;6.80;5.93;;;21.90;99.90;;;;;;5033415;28;20200;-45
2022/04/23 13:08:56;;;;;;;6.87;6.17;;;21.90;99.90;;;;;;5033287;28;20176;-44
2022/04/23 13:11:29;;;;;;;6.87;6.17;;;21.90;99.90;;;;;;5033159;28;20176;-45
2022/04/23 13:14:00;;;;;;;10.97;5.90;;;22.10;99.90;;;;;;5033468;28;20197;-44
2022/04/23 13:16:33;;;;;;;6.93;6.10;;;22.10;99.90;;;;;;5032976;28;20715;-45
2022/04/23 13:19:00;;;;;;;6.03;5.53;;;22.20;99.90;;;;;;5033358;28;20173;-44